sensor_id;sensor_type;location;lat;lon;timestamp;P1;durP1;ratioP1;P2;durP2;ratioP2
43160;SDS011;40968;52.342;5.528;2024-03-08T00:02:10;60.75;;;19.10;;
43160;SDS011;40968;52.342;5.528;2024-03-08T00:04:38;61.10;;;17.50;;
43160;SDS011;40968;52.342;5.528;2024-03-08T00:07:04;65.07;;;18.85;;
43160;SDS011;40968;52.342;5.528;2024-03-08T00:09:32;61.30;;;18.27;;
43160;SDS011;40968;52.342;5.528;2024-03-08T00:11:58;60.55;;;19.02;;
43160;SDS011;40968;52.342;5.528;2024-03-08T00:14:25;67.15;;;19.80;;
43160;SDS011;40968;52.342;5.528;2024-03-08T00:16:54;60.58;;;18.17;;
43160;SDS011;40968;52.342;5.528;2024-03-08T00:19:20;49.85;;;16.98;;
43160;SDS011;40968;52.342;5.528;2024-03-08T00:21:47;57.53;;;19.17;;
43160;SDS011;40968;52.342;5.528;2024-03-08T00:24:13;58.97;;;19.65;;
43160;SDS011;40968;52.342;5.528;2024-03-08T00:26:40;60.92;;;18.83;;
43160;SDS011;40968;52.342;5.528;2024-03-08T00:29:07;69.18;;;20.42;;
43160;SDS011;40968;52.342;5.528;2024-03-08T00:31:33;62.40;;;18.70;;
43160;SDS011;40968;52.342;5.528;2024-03-08T00:34:01;57.05;;;18.30;;
43160;SDS011;40968;52.342;5.528;2024-03-08T00:36:28;58.10;;;17.67;;
43160;SDS011;40968;52.342;5.528;2024-03-08T00:38:55;56.42;;;18.67;;
43160;SDS011;40968;52.342;5.528;2024-03-08T00:41:21;62.38;;;18.73;;
43160;SDS011;40968;52.342;5.528;2024-03-08T00:43:48;55.10;;;19.10;;
43160;SDS011;40968;52.342;5.528;2024-03-08T00:46:15;60.10;;;18.67;;
43160;SDS011;40968;52.342;5.528;2024-03-08T00:48:42;61.70;;;17.90;;
43160;SDS011;40968;52.342;5.528;2024-03-08T00:51:11;53.92;;;16.98;;
43160;SDS011;40968;52.342;5.528;2024-03-08T00:53:37;55.25;;;17.08;;
43160;SDS011;40968;52.342;5.528;2024-03-08T00:56:04;50.67;;;17.25;;
43160;SDS011;40968;52.342;5.528;2024-03-08T00:58:30;61.97;;;18.67;;
43160;SDS011;40968;52.342;5.528;2024-03-08T01:00:57;58.72;;;18.15;;
43160;SDS011;40968;52.342;5.528;2024-03-08T01:03:24;64.00;;;18.23;;
43160;SDS011;40968;52.342;5.528;2024-03-08T01:05:51;62.30;;;17.35;;
43160;SDS011;40968;52.342;5.528;2024-03-08T01:08:19;60.47;;;19.38;;
43160;SDS011;40968;52.342;5.528;2024-03-08T01:10:46;59.95;;;19.17;;
43160;SDS011;40968;52.342;5.528;2024-03-08T01:13:12;66.95;;;20.05;;
43160;SDS011;40968;52.342;5.528;2024-03-08T01:15:39;60.33;;;19.83;;
43160;SDS011;40968;52.342;5.528;2024-03-08T01:18:06;63.38;;;19.38;;
43160;SDS011;40968;52.342;5.528;2024-03-08T01:20:32;54.42;;;18.17;;
43160;SDS011;40968;52.342;5.528;2024-03-08T01:22:58;69.10;;;18.30;;
43160;SDS011;40968;52.342;5.528;2024-03-08T01:25:26;57.22;;;18.65;;
43160;SDS011;40968;52.342;5.528;2024-03-08T01:27:53;56.90;;;19.17;;
43160;SDS011;40968;52.342;5.528;2024-03-08T01:30:19;56.83;;;18.05;;
43160;SDS011;40968;52.342;5.528;2024-03-08T01:32:46;60.38;;;20.08;;
43160;SDS011;40968;52.342;5.528;2024-03-08T01:35:12;52.92;;;19.05;;
43160;SDS011;40968;52.342;5.528;2024-03-08T01:37:39;54.72;;;18.30;;
43160;SDS011;40968;52.342;5.528;2024-03-08T01:40:06;63.42;;;19.25;;
43160;SDS011;40968;52.342;5.528;2024-03-08T01:42:36;62.33;;;19.58;;
43160;SDS011;40968;52.342;5.528;2024-03-08T01:45:03;51.80;;;18.40;;
43160;SDS011;40968;52.342;5.528;2024-03-08T01:47:31;59.45;;;20.05;;
43160;SDS011;40968;52.342;5.528;2024-03-08T01:49:58;67.72;;;18.90;;
43160;SDS011;40968;52.342;5.528;2024-03-08T01:52:26;71.03;;;18.70;;
43160;SDS011;40968;52.342;5.528;2024-03-08T01:54:53;61.15;;;18.55;;
43160;SDS011;40968;52.342;5.528;2024-03-08T01:57:19;50.85;;;18.52;;
43160;SDS011;40968;52.342;5.528;2024-03-08T01:59:47;57.75;;;18.67;;
43160;SDS011;40968;52.342;5.528;2024-03-08T02:02:15;70.22;;;19.85;;
43160;SDS011;40968;52.342;5.528;2024-03-08T02:04:44;65.43;;;19.88;;
43160;SDS011;40968;52.342;5.528;2024-03-08T02:07:11;62.28;;;19.17;;
43160;SDS011;40968;52.342;5.528;2024-03-08T02:09:38;58.15;;;18.27;;
43160;SDS011;40968;52.342;5.528;2024-03-08T02:12:05;69.57;;;19.08;;
43160;SDS011;40968;52.342;5.528;2024-03-08T02:14:33;61.28;;;18.58;;
43160;SDS011;40968;52.342;5.528;2024-03-08T02:17:01;64.25;;;19.95;;
43160;SDS011;40968;52.342;5.528;2024-03-08T02:19:28;57.58;;;18.58;;
43160;SDS011;40968;52.342;5.528;2024-03-08T02:21:56;59.75;;;18.15;;
43160;SDS011;40968;52.342;5.528;2024-03-08T02:24:23;64.53;;;19.98;;
43160;SDS011;40968;52.342;5.528;2024-03-08T02:26:50;71.03;;;19.60;;
43160;SDS011;40968;52.342;5.528;2024-03-08T02:29:18;63.15;;;19.27;;
43160;SDS011;40968;52.342;5.528;2024-03-08T02:31:46;71.28;;;20.02;;
43160;SDS011;40968;52.342;5.528;2024-03-08T02:34:13;65.72;;;20.90;;
43160;SDS011;40968;52.342;5.528;2024-03-08T02:36:39;61.63;;;20.20;;
43160;SDS011;40968;52.342;5.528;2024-03-08T02:39:08;62.97;;;20.05;;
43160;SDS011;40968;52.342;5.528;2024-03-08T02:41:35;52.72;;;19.50;;
43160;SDS011;40968;52.342;5.528;2024-03-08T02:44:02;64.72;;;18.88;;
43160;SDS011;40968;52.342;5.528;2024-03-08T02:46:29;63.08;;;20.55;;
43160;SDS011;40968;52.342;5.528;2024-03-08T02:48:55;69.20;;;21.83;;
43160;SDS011;40968;52.342;5.528;2024-03-08T02:51:22;53.63;;;19.88;;
43160;SDS011;40968;52.342;5.528;2024-03-08T02:53:51;61.78;;;19.95;;
43160;SDS011;40968;52.342;5.528;2024-03-08T02:56:19;59.55;;;19.77;;
43160;SDS011;40968;52.342;5.528;2024-03-08T02:58:46;67.15;;;20.27;;
43160;SDS011;40968;52.342;5.528;2024-03-08T03:01:13;57.50;;;21.33;;
43160;SDS011;40968;52.342;5.528;2024-03-08T03:03:40;66.72;;;19.10;;
43160;SDS011;40968;52.342;5.528;2024-03-08T03:06:07;65.13;;;20.10;;
43160;SDS011;40968;52.342;5.528;2024-03-08T03:08:33;69.95;;;21.17;;
43160;SDS011;40968;52.342;5.528;2024-03-08T03:11:00;68.38;;;22.67;;
43160;SDS011;40968;52.342;5.528;2024-03-08T03:13:28;68.40;;;21.55;;
43160;SDS011;40968;52.342;5.528;2024-03-08T03:15:54;58.47;;;20.00;;
43160;SDS011;40968;52.342;5.528;2024-03-08T03:18:23;62.90;;;19.95;;
43160;SDS011;40968;52.342;5.528;2024-03-08T03:20:51;59.17;;;19.92;;
43160;SDS011;40968;52.342;5.528;2024-03-08T03:23:17;69.25;;;20.88;;
43160;SDS011;40968;52.342;5.528;2024-03-08T03:25:45;62.13;;;21.20;;
43160;SDS011;40968;52.342;5.528;2024-03-08T03:28:12;71.35;;;21.02;;
43160;SDS011;40968;52.342;5.528;2024-03-08T03:30:41;61.85;;;18.88;;
43160;SDS011;40968;52.342;5.528;2024-03-08T03:33:07;56.72;;;20.15;;
43160;SDS011;40968;52.342;5.528;2024-03-08T03:35:34;69.95;;;19.33;;
43160;SDS011;40968;52.342;5.528;2024-03-08T03:38:02;58.53;;;19.98;;
43160;SDS011;40968;52.342;5.528;2024-03-08T03:40:31;66.70;;;21.90;;
43160;SDS011;40968;52.342;5.528;2024-03-08T03:42:58;75.80;;;21.70;;
43160;SDS011;40968;52.342;5.528;2024-03-08T03:45:25;79.57;;;22.38;;
43160;SDS011;40968;52.342;5.528;2024-03-08T03:47:53;78.72;;;21.90;;
43160;SDS011;40968;52.342;5.528;2024-03-08T03:50:19;63.28;;;20.70;;
43160;SDS011;40968;52.342;5.528;2024-03-08T03:52:47;57.80;;;20.15;;
43160;SDS011;40968;52.342;5.528;2024-03-08T03:55:14;69.80;;;22.33;;
43160;SDS011;40968;52.342;5.528;2024-03-08T03:57:40;68.78;;;20.30;;
43160;SDS011;40968;52.342;5.528;2024-03-08T04:00:07;64.13;;;21.95;;
43160;SDS011;40968;52.342;5.528;2024-03-08T04:02:35;63.50;;;19.88;;
43160;SDS011;40968;52.342;5.528;2024-03-08T04:05:05;70.35;;;21.38;;
43160;SDS011;40968;52.342;5.528;2024-03-08T04:07:32;74.35;;;23.98;;
43160;SDS011;40968;52.342;5.528;2024-03-08T04:09:59;62.95;;;21.75;;
43160;SDS011;40968;52.342;5.528;2024-03-08T04:12:26;67.97;;;23.20;;
43160;SDS011;40968;52.342;5.528;2024-03-08T04:14:54;76.70;;;22.98;;
43160;SDS011;40968;52.342;5.528;2024-03-08T04:17:20;57.85;;;20.92;;
43160;SDS011;40968;52.342;5.528;2024-03-08T04:19:47;59.20;;;20.60;;
43160;SDS011;40968;52.342;5.528;2024-03-08T04:22:15;70.13;;;21.27;;
43160;SDS011;40968;52.342;5.528;2024-03-08T04:24:42;69.95;;;21.50;;
43160;SDS011;40968;52.342;5.528;2024-03-08T04:27:09;71.15;;;21.20;;
43160;SDS011;40968;52.342;5.528;2024-03-08T04:29:36;68.75;;;21.48;;
43160;SDS011;40968;52.342;5.528;2024-03-08T04:32:03;64.20;;;21.52;;
43160;SDS011;40968;52.342;5.528;2024-03-08T04:34:31;68.38;;;20.67;;
43160;SDS011;40968;52.342;5.528;2024-03-08T04:36:58;66.05;;;21.10;;
43160;SDS011;40968;52.342;5.528;2024-03-08T04:39:27;65.10;;;21.55;;
43160;SDS011;40968;52.342;5.528;2024-03-08T04:41:54;65.80;;;21.25;;
43160;SDS011;40968;52.342;5.528;2024-03-08T04:44:22;69.70;;;21.95;;
43160;SDS011;40968;52.342;5.528;2024-03-08T04:46:49;66.45;;;22.02;;
43160;SDS011;40968;52.342;5.528;2024-03-08T04:49:16;78.43;;;22.98;;
43160;SDS011;40968;52.342;5.528;2024-03-08T04:51:43;66.68;;;22.35;;
43160;SDS011;40968;52.342;5.528;2024-03-08T04:54:09;62.95;;;21.20;;
43160;SDS011;40968;52.342;5.528;2024-03-08T04:56:37;73.82;;;24.35;;
43160;SDS011;40968;52.342;5.528;2024-03-08T04:59:05;68.65;;;22.92;;
43160;SDS011;40968;52.342;5.528;2024-03-08T05:01:33;65.50;;;21.25;;
43160;SDS011;40968;52.342;5.528;2024-03-08T05:04:02;68.15;;;21.85;;
43160;SDS011;40968;52.342;5.528;2024-03-08T05:06:30;66.97;;;21.25;;
43160;SDS011;40968;52.342;5.528;2024-03-08T05:08:57;70.65;;;22.42;;
43160;SDS011;40968;52.342;5.528;2024-03-08T05:11:23;68.57;;;22.10;;
43160;SDS011;40968;52.342;5.528;2024-03-08T05:13:51;68.13;;;22.65;;
43160;SDS011;40968;52.342;5.528;2024-03-08T05:16:18;86.00;;;22.88;;
43160;SDS011;40968;52.342;5.528;2024-03-08T05:18:47;65.93;;;22.27;;
43160;SDS011;40968;52.342;5.528;2024-03-08T05:21:14;72.10;;;21.95;;
43160;SDS011;40968;52.342;5.528;2024-03-08T05:23:42;64.93;;;22.55;;
43160;SDS011;40968;52.342;5.528;2024-03-08T05:26:09;68.47;;;22.63;;
43160;SDS011;40968;52.342;5.528;2024-03-08T05:28:35;78.10;;;23.50;;
43160;SDS011;40968;52.342;5.528;2024-03-08T05:31:03;75.53;;;22.08;;
43160;SDS011;40968;52.342;5.528;2024-03-08T05:33:30;63.90;;;21.48;;
43160;SDS011;40968;52.342;5.528;2024-03-08T05:35:56;72.95;;;23.85;;
43160;SDS011;40968;52.342;5.528;2024-03-08T05:38:24;74.07;;;23.50;;
43160;SDS011;40968;52.342;5.528;2024-03-08T05:40:50;71.53;;;23.10;;
43160;SDS011;40968;52.342;5.528;2024-03-08T05:43:17;76.03;;;23.10;;
43160;SDS011;40968;52.342;5.528;2024-03-08T05:45:44;75.28;;;21.80;;
43160;SDS011;40968;52.342;5.528;2024-03-08T05:48:12;65.78;;;22.60;;
43160;SDS011;40968;52.342;5.528;2024-03-08T05:50:39;72.25;;;23.92;;
43160;SDS011;40968;52.342;5.528;2024-03-08T05:53:08;70.03;;;23.27;;
43160;SDS011;40968;52.342;5.528;2024-03-08T05:55:35;76.85;;;23.33;;
43160;SDS011;40968;52.342;5.528;2024-03-08T05:58:01;79.20;;;23.75;;
43160;SDS011;40968;52.342;5.528;2024-03-08T06:00:28;70.05;;;22.52;;
43160;SDS011;40968;52.342;5.528;2024-03-08T06:02:56;71.35;;;23.92;;
43160;SDS011;40968;52.342;5.528;2024-03-08T06:05:25;68.82;;;23.33;;
43160;SDS011;40968;52.342;5.528;2024-03-08T06:07:51;66.88;;;23.52;;
43160;SDS011;40968;52.342;5.528;2024-03-08T06:10:18;68.85;;;22.45;;
43160;SDS011;40968;52.342;5.528;2024-03-08T06:12:45;77.97;;;23.38;;
43160;SDS011;40968;52.342;5.528;2024-03-08T06:15:12;70.72;;;23.10;;
43160;SDS011;40968;52.342;5.528;2024-03-08T06:17:40;77.82;;;24.58;;
43160;SDS011;40968;52.342;5.528;2024-03-08T06:20:06;80.28;;;24.33;;
43160;SDS011;40968;52.342;5.528;2024-03-08T06:22:39;73.95;;;23.10;;
43160;SDS011;40968;52.342;5.528;2024-03-08T06:25:07;73.28;;;24.23;;
43160;SDS011;40968;52.342;5.528;2024-03-08T06:27:33;73.95;;;24.27;;
43160;SDS011;40968;52.342;5.528;2024-03-08T06:30:00;80.40;;;24.67;;
43160;SDS011;40968;52.342;5.528;2024-03-08T06:32:27;75.85;;;23.67;;
43160;SDS011;40968;52.342;5.528;2024-03-08T06:34:53;85.35;;;25.52;;
43160;SDS011;40968;52.342;5.528;2024-03-08T06:37:20;71.22;;;23.70;;
43160;SDS011;40968;52.342;5.528;2024-03-08T06:39:50;77.47;;;23.75;;
43160;SDS011;40968;52.342;5.528;2024-03-08T06:42:17;78.07;;;24.98;;
43160;SDS011;40968;52.342;5.528;2024-03-08T06:44:43;75.13;;;23.45;;
43160;SDS011;40968;52.342;5.528;2024-03-08T06:49:41;76.50;;;23.90;;
43160;SDS011;40968;52.342;5.528;2024-03-08T06:52:07;85.75;;;24.98;;
43160;SDS011;40968;52.342;5.528;2024-03-08T06:54:34;75.55;;;24.58;;
43160;SDS011;40968;52.342;5.528;2024-03-08T06:57:02;75.47;;;24.50;;
43160;SDS011;40968;52.342;5.528;2024-03-08T06:59:30;79.63;;;23.58;;
43160;SDS011;40968;52.342;5.528;2024-03-08T07:01:56;86.10;;;24.40;;
43160;SDS011;40968;52.342;5.528;2024-03-08T07:04:24;84.40;;;24.77;;
43160;SDS011;40968;52.342;5.528;2024-03-08T07:06:53;82.95;;;24.05;;
43160;SDS011;40968;52.342;5.528;2024-03-08T07:09:20;74.03;;;23.48;;
43160;SDS011;40968;52.342;5.528;2024-03-08T07:11:47;73.75;;;23.42;;
43160;SDS011;40968;52.342;5.528;2024-03-08T07:14:21;76.40;;;24.65;;
43160;SDS011;40968;52.342;5.528;2024-03-08T07:16:48;73.82;;;24.20;;
43160;SDS011;40968;52.342;5.528;2024-03-08T07:19:14;69.93;;;25.40;;
43160;SDS011;40968;52.342;5.528;2024-03-08T07:21:41;75.90;;;22.75;;
43160;SDS011;40968;52.342;5.528;2024-03-08T07:24:09;78.22;;;24.70;;
43160;SDS011;40968;52.342;5.528;2024-03-08T07:26:52;77.40;;;25.13;;
43160;SDS011;40968;52.342;5.528;2024-03-08T07:29:21;72.82;;;23.48;;
43160;SDS011;40968;52.342;5.528;2024-03-08T07:31:48;80.45;;;24.45;;
43160;SDS011;40968;52.342;5.528;2024-03-08T07:34:21;70.72;;;23.75;;
43160;SDS011;40968;52.342;5.528;2024-03-08T07:36:47;78.60;;;24.17;;
43160;SDS011;40968;52.342;5.528;2024-03-08T07:39:15;72.78;;;25.42;;
43160;SDS011;40968;52.342;5.528;2024-03-08T07:41:42;69.53;;;23.88;;
43160;SDS011;40968;52.342;5.528;2024-03-08T07:44:09;75.03;;;24.50;;
43160;SDS011;40968;52.342;5.528;2024-03-08T07:46:37;80.22;;;23.90;;
43160;SDS011;40968;52.342;5.528;2024-03-08T07:49:04;70.30;;;24.38;;
43160;SDS011;40968;52.342;5.528;2024-03-08T07:51:32;70.88;;;25.00;;
43160;SDS011;40968;52.342;5.528;2024-03-08T07:53:59;86.07;;;24.45;;
43160;SDS011;40968;52.342;5.528;2024-03-08T07:56:26;75.18;;;26.52;;
43160;SDS011;40968;52.342;5.528;2024-03-08T07:58:52;78.38;;;24.20;;
43160;SDS011;40968;52.342;5.528;2024-03-08T08:01:19;81.28;;;26.10;;
43160;SDS011;40968;52.342;5.528;2024-03-08T08:03:47;69.10;;;22.85;;
43160;SDS011;40968;52.342;5.528;2024-03-08T08:06:14;78.82;;;25.38;;
43160;SDS011;40968;52.342;5.528;2024-03-08T08:08:41;71.00;;;24.75;;
43160;SDS011;40968;52.342;5.528;2024-03-08T08:11:08;72.10;;;24.80;;
43160;SDS011;40968;52.342;5.528;2024-03-08T08:13:36;86.03;;;24.45;;
43160;SDS011;40968;52.342;5.528;2024-03-08T08:16:03;81.70;;;23.10;;
43160;SDS011;40968;52.342;5.528;2024-03-08T08:18:30;80.60;;;24.05;;
43160;SDS011;40968;52.342;5.528;2024-03-08T08:20:59;84.40;;;25.23;;
43160;SDS011;40968;52.342;5.528;2024-03-08T08:23:26;64.82;;;23.48;;
43160;SDS011;40968;52.342;5.528;2024-03-08T08:25:52;73.40;;;22.85;;
43160;SDS011;40968;52.342;5.528;2024-03-08T08:28:19;85.82;;;25.30;;
43160;SDS011;40968;52.342;5.528;2024-03-08T08:30:45;86.93;;;23.85;;
43160;SDS011;40968;52.342;5.528;2024-03-08T08:33:13;84.50;;;23.08;;
43160;SDS011;40968;52.342;5.528;2024-03-08T08:35:40;83.10;;;24.02;;
43160;SDS011;40968;52.342;5.528;2024-03-08T08:38:09;71.25;;;22.90;;
43160;SDS011;40968;52.342;5.528;2024-03-08T08:40:35;80.45;;;22.88;;
43160;SDS011;40968;52.342;5.528;2024-03-08T08:43:02;90.88;;;24.95;;
43160;SDS011;40968;52.342;5.528;2024-03-08T08:45:29;73.50;;;22.98;;
43160;SDS011;40968;52.342;5.528;2024-03-08T08:47:56;70.88;;;22.92;;
43160;SDS011;40968;52.342;5.528;2024-03-08T08:50:24;79.07;;;22.70;;
43160;SDS011;40968;52.342;5.528;2024-03-08T08:52:53;75.15;;;24.00;;
43160;SDS011;40968;52.342;5.528;2024-03-08T08:55:21;72.78;;;23.83;;
43160;SDS011;40968;52.342;5.528;2024-03-08T08:57:50;71.47;;;23.50;;
43160;SDS011;40968;52.342;5.528;2024-03-08T09:00:18;72.10;;;21.88;;
43160;SDS011;40968;52.342;5.528;2024-03-08T09:02:45;63.65;;;22.50;;
43160;SDS011;40968;52.342;5.528;2024-03-08T09:05:12;75.15;;;22.30;;
43160;SDS011;40968;52.342;5.528;2024-03-08T09:07:41;70.80;;;22.85;;
43160;SDS011;40968;52.342;5.528;2024-03-08T09:10:09;74.75;;;23.70;;
43160;SDS011;40968;52.342;5.528;2024-03-08T09:12:38;72.70;;;22.60;;
43160;SDS011;40968;52.342;5.528;2024-03-08T09:15:07;68.22;;;22.60;;
43160;SDS011;40968;52.342;5.528;2024-03-08T09:17:35;77.90;;;22.85;;
43160;SDS011;40968;52.342;5.528;2024-03-08T09:20:04;69.85;;;21.27;;
43160;SDS011;40968;52.342;5.528;2024-03-08T09:22:32;65.63;;;22.30;;
43160;SDS011;40968;52.342;5.528;2024-03-08T09:24:58;71.05;;;22.00;;
43160;SDS011;40968;52.342;5.528;2024-03-08T09:27:26;64.05;;;21.52;;
43160;SDS011;40968;52.342;5.528;2024-03-08T09:29:54;59.28;;;20.48;;
43160;SDS011;40968;52.342;5.528;2024-03-08T09:32:21;68.40;;;22.40;;
43160;SDS011;40968;52.342;5.528;2024-03-08T09:34:48;68.30;;;21.23;;
43160;SDS011;40968;52.342;5.528;2024-03-08T09:37:15;64.47;;;21.17;;
43160;SDS011;40968;52.342;5.528;2024-03-08T09:39:42;57.28;;;20.80;;
43160;SDS011;40968;52.342;5.528;2024-03-08T09:42:09;58.55;;;20.27;;
43160;SDS011;40968;52.342;5.528;2024-03-08T09:44:39;59.78;;;20.48;;
43160;SDS011;40968;52.342;5.528;2024-03-08T09:47:11;60.60;;;21.58;;
43160;SDS011;40968;52.342;5.528;2024-03-08T09:49:39;74.55;;;22.13;;
43160;SDS011;40968;52.342;5.528;2024-03-08T09:52:06;63.42;;;22.10;;
43160;SDS011;40968;52.342;5.528;2024-03-08T09:54:35;61.55;;;21.25;;
43160;SDS011;40968;52.342;5.528;2024-03-08T09:57:02;68.93;;;21.75;;
43160;SDS011;40968;52.342;5.528;2024-03-08T09:59:30;73.50;;;22.30;;
43160;SDS011;40968;52.342;5.528;2024-03-08T10:02:12;65.13;;;21.10;;
43160;SDS011;40968;52.342;5.528;2024-03-08T10:04:41;69.70;;;20.30;;
43160;SDS011;40968;52.342;5.528;2024-03-08T10:07:08;58.08;;;19.38;;
43160;SDS011;40968;52.342;5.528;2024-03-08T10:09:34;65.68;;;21.30;;
43160;SDS011;40968;52.342;5.528;2024-03-08T10:12:01;57.55;;;21.48;;
43160;SDS011;40968;52.342;5.528;2024-03-08T10:14:28;61.45;;;19.33;;
43160;SDS011;40968;52.342;5.528;2024-03-08T10:16:54;71.35;;;21.52;;
43160;SDS011;40968;52.342;5.528;2024-03-08T10:19:26;66.87;;;20.27;;
43160;SDS011;40968;52.342;5.528;2024-03-08T10:21:55;69.60;;;20.77;;
43160;SDS011;40968;52.342;5.528;2024-03-08T10:24:23;64.03;;;21.40;;
43160;SDS011;40968;52.342;5.528;2024-03-08T10:26:51;78.93;;;20.73;;
43160;SDS011;40968;52.342;5.528;2024-03-08T10:29:18;68.18;;;20.27;;
43160;SDS011;40968;52.342;5.528;2024-03-08T10:31:45;67.82;;;21.13;;
43160;SDS011;40968;52.342;5.528;2024-03-08T10:34:12;60.08;;;20.08;;
43160;SDS011;40968;52.342;5.528;2024-03-08T10:36:40;60.75;;;20.25;;
43160;SDS011;40968;52.342;5.528;2024-03-08T10:39:09;60.85;;;19.63;;
43160;SDS011;40968;52.342;5.528;2024-03-08T10:41:44;58.65;;;20.60;;
43160;SDS011;40968;52.342;5.528;2024-03-08T10:44:20;55.65;;;20.23;;
43160;SDS011;40968;52.342;5.528;2024-03-08T10:47:00;73.15;;;21.58;;
43160;SDS011;40968;52.342;5.528;2024-03-08T10:49:30;59.25;;;19.30;;
43160;SDS011;40968;52.342;5.528;2024-03-08T10:52:01;57.70;;;19.20;;
43160;SDS011;40968;52.342;5.528;2024-03-08T10:54:29;57.83;;;19.30;;
43160;SDS011;40968;52.342;5.528;2024-03-08T10:56:57;68.10;;;19.52;;
43160;SDS011;40968;52.342;5.528;2024-03-08T10:59:24;52.88;;;19.75;;
43160;SDS011;40968;52.342;5.528;2024-03-08T11:01:53;53.67;;;19.48;;
43160;SDS011;40968;52.342;5.528;2024-03-08T11:04:20;55.67;;;18.75;;
43160;SDS011;40968;52.342;5.528;2024-03-08T11:06:53;67.60;;;19.15;;
43160;SDS011;40968;52.342;5.528;2024-03-08T11:09:31;59.85;;;19.15;;
43160;SDS011;40968;52.342;5.528;2024-03-08T11:12:19;66.25;;;20.65;;
43160;SDS011;40968;52.342;5.528;2024-03-08T11:14:47;54.55;;;18.85;;
43160;SDS011;40968;52.342;5.528;2024-03-08T11:17:14;58.03;;;20.23;;
43160;SDS011;40968;52.342;5.528;2024-03-08T11:19:45;58.85;;;19.30;;
43160;SDS011;40968;52.342;5.528;2024-03-08T11:22:21;50.25;;;18.45;;
43160;SDS011;40968;52.342;5.528;2024-03-08T11:24:52;52.45;;;19.30;;
43160;SDS011;40968;52.342;5.528;2024-03-08T11:27:19;48.88;;;17.33;;
43160;SDS011;40968;52.342;5.528;2024-03-08T11:29:58;55.00;;;17.98;;
43160;SDS011;40968;52.342;5.528;2024-03-08T11:32:33;50.53;;;18.15;;
43160;SDS011;40968;52.342;5.528;2024-03-08T11:35:01;51.85;;;17.27;;
43160;SDS011;40968;52.342;5.528;2024-03-08T11:37:33;56.95;;;18.13;;
43160;SDS011;40968;52.342;5.528;2024-03-08T11:40:01;50.50;;;18.20;;
43160;SDS011;40968;52.342;5.528;2024-03-08T11:42:29;60.08;;;18.75;;
43160;SDS011;40968;52.342;5.528;2024-03-08T11:44:56;55.17;;;16.60;;
43160;SDS011;40968;52.342;5.528;2024-03-08T11:47:23;54.15;;;17.50;;
43160;SDS011;40968;52.342;5.528;2024-03-08T11:49:51;47.03;;;15.35;;
43160;SDS011;40968;52.342;5.528;2024-03-08T11:52:18;46.63;;;16.40;;
43160;SDS011;40968;52.342;5.528;2024-03-08T11:54:51;45.47;;;15.82;;
43160;SDS011;40968;52.342;5.528;2024-03-08T11:57:19;50.92;;;18.00;;
43160;SDS011;40968;52.342;5.528;2024-03-08T11:59:49;51.83;;;16.83;;
43160;SDS011;40968;52.342;5.528;2024-03-08T12:02:16;42.75;;;15.57;;
43160;SDS011;40968;52.342;5.528;2024-03-08T12:04:44;49.05;;;15.82;;
43160;SDS011;40968;52.342;5.528;2024-03-08T12:07:11;44.08;;;16.27;;
43160;SDS011;40968;52.342;5.528;2024-03-08T12:10:02;44.25;;;16.10;;
43160;SDS011;40968;52.342;5.528;2024-03-08T12:12:42;43.58;;;15.07;;
43160;SDS011;40968;52.342;5.528;2024-03-08T12:15:09;47.17;;;15.55;;
43160;SDS011;40968;52.342;5.528;2024-03-08T12:17:36;45.20;;;15.88;;
43160;SDS011;40968;52.342;5.528;2024-03-08T12:20:11;42.47;;;15.52;;
43160;SDS011;40968;52.342;5.528;2024-03-08T12:22:40;46.00;;;15.65;;
43160;SDS011;40968;52.342;5.528;2024-03-08T12:25:10;54.95;;;16.95;;
43160;SDS011;40968;52.342;5.528;2024-03-08T12:27:39;41.80;;;15.30;;
43160;SDS011;40968;52.342;5.528;2024-03-08T12:30:20;41.03;;;15.48;;
43160;SDS011;40968;52.342;5.528;2024-03-08T12:32:52;46.30;;;14.18;;
43160;SDS011;40968;52.342;5.528;2024-03-08T12:35:21;46.97;;;16.02;;
43160;SDS011;40968;52.342;5.528;2024-03-08T12:37:49;38.30;;;14.68;;
43160;SDS011;40968;52.342;5.528;2024-03-08T12:40:18;43.65;;;14.68;;
43160;SDS011;40968;52.342;5.528;2024-03-08T12:42:47;44.78;;;14.73;;
43160;SDS011;40968;52.342;5.528;2024-03-08T12:45:14;49.13;;;14.50;;
43160;SDS011;40968;52.342;5.528;2024-03-08T12:47:41;39.13;;;14.23;;
43160;SDS011;40968;52.342;5.528;2024-03-08T12:50:08;42.88;;;15.48;;
43160;SDS011;40968;52.342;5.528;2024-03-08T12:52:36;39.17;;;13.57;;
43160;SDS011;40968;52.342;5.528;2024-03-08T12:55:03;45.25;;;14.23;;
43160;SDS011;40968;52.342;5.528;2024-03-08T12:57:31;35.78;;;13.52;;
43160;SDS011;40968;52.342;5.528;2024-03-08T13:00:01;42.55;;;15.13;;
43160;SDS011;40968;52.342;5.528;2024-03-08T13:02:29;42.58;;;14.57;;
43160;SDS011;40968;52.342;5.528;2024-03-08T13:04:57;44.05;;;14.32;;
43160;SDS011;40968;52.342;5.528;2024-03-08T13:07:26;38.80;;;13.90;;
43160;SDS011;40968;52.342;5.528;2024-03-08T13:09:53;46.10;;;15.02;;
43160;SDS011;40968;52.342;5.528;2024-03-08T13:12:20;40.13;;;13.95;;
43160;SDS011;40968;52.342;5.528;2024-03-08T13:14:48;45.63;;;14.32;;
43160;SDS011;40968;52.342;5.528;2024-03-08T13:17:16;48.38;;;14.82;;
43160;SDS011;40968;52.342;5.528;2024-03-08T13:19:43;40.63;;;14.60;;
43160;SDS011;40968;52.342;5.528;2024-03-08T13:22:10;42.75;;;14.52;;
43160;SDS011;40968;52.342;5.528;2024-03-08T13:24:38;36.10;;;14.65;;
43160;SDS011;40968;52.342;5.528;2024-03-08T13:27:06;33.50;;;12.68;;
43160;SDS011;40968;52.342;5.528;2024-03-08T13:29:44;39.97;;;13.57;;
43160;SDS011;40968;52.342;5.528;2024-03-08T13:32:12;42.63;;;14.27;;
43160;SDS011;40968;52.342;5.528;2024-03-08T13:34:44;42.45;;;14.43;;
43160;SDS011;40968;52.342;5.528;2024-03-08T13:37:12;36.13;;;13.10;;
43160;SDS011;40968;52.342;5.528;2024-03-08T13:39:41;41.60;;;14.10;;
43160;SDS011;40968;52.342;5.528;2024-03-08T13:42:09;41.67;;;13.15;;
43160;SDS011;40968;52.342;5.528;2024-03-08T13:44:38;36.63;;;13.52;;
43160;SDS011;40968;52.342;5.528;2024-03-08T13:47:06;39.80;;;13.65;;
43160;SDS011;40968;52.342;5.528;2024-03-08T13:49:32;38.55;;;13.57;;
43160;SDS011;40968;52.342;5.528;2024-03-08T13:52:00;39.60;;;14.27;;
43160;SDS011;40968;52.342;5.528;2024-03-08T13:54:27;38.83;;;13.65;;
43160;SDS011;40968;52.342;5.528;2024-03-08T13:56:56;39.58;;;13.82;;
43160;SDS011;40968;52.342;5.528;2024-03-08T13:59:23;35.22;;;13.05;;
43160;SDS011;40968;52.342;5.528;2024-03-08T14:01:49;38.60;;;14.10;;
43160;SDS011;40968;52.342;5.528;2024-03-08T14:04:16;44.05;;;14.23;;
43160;SDS011;40968;52.342;5.528;2024-03-08T14:06:43;39.40;;;13.90;;
43160;SDS011;40968;52.342;5.528;2024-03-08T14:09:12;43.08;;;14.18;;
43160;SDS011;40968;52.342;5.528;2024-03-08T14:11:42;38.40;;;13.23;;
43160;SDS011;40968;52.342;5.528;2024-03-08T14:14:10;40.97;;;14.10;;
43160;SDS011;40968;52.342;5.528;2024-03-08T14:16:37;42.85;;;14.50;;
43160;SDS011;40968;52.342;5.528;2024-03-08T14:19:05;36.30;;;13.77;;
43160;SDS011;40968;52.342;5.528;2024-03-08T14:21:32;39.45;;;14.50;;
43160;SDS011;40968;52.342;5.528;2024-03-08T14:23:59;35.05;;;13.77;;
43160;SDS011;40968;52.342;5.528;2024-03-08T14:26:27;41.40;;;13.82;;
43160;SDS011;40968;52.342;5.528;2024-03-08T14:28:54;41.25;;;15.60;;